sensor_id;sensor_type;location;lat;lon;timestamp;P1;durP1;ratioP1;P2;durP2;ratioP2
71955;SDS011;59829;50.562;6.258;2023-06-10T00:00:51;5.45;;;2.80;;
71955;SDS011;59829;50.562;6.258;2023-06-10T00:10:51;4.50;;;2.60;;
71955;SDS011;59829;50.562;6.258;2023-06-10T00:20:51;4.70;;;2.85;;
71955;SDS011;59829;50.562;6.258;2023-06-10T00:30:54;5.50;;;2.78;;
71955;SDS011;59829;50.562;6.258;2023-06-10T00:40:55;4.53;;;2.55;;
71955;SDS011;59829;50.562;6.258;2023-06-10T00:50:56;4.50;;;2.70;;
71955;SDS011;59829;50.562;6.258;2023-06-10T01:00:58;4.33;;;2.80;;
71955;SDS011;59829;50.562;6.258;2023-06-10T01:10:59;5.38;;;2.85;;
71955;SDS011;59829;50.562;6.258;2023-06-10T01:21:01;4.65;;;2.70;;
71955;SDS011;59829;50.562;6.258;2023-06-10T01:41:13;5.40;;;3.10;;
71955;SDS011;59829;50.562;6.258;2023-06-10T01:51:15;4.70;;;2.78;;
71955;SDS011;59829;50.562;6.258;2023-06-10T02:01:16;5.95;;;3.00;;
71955;SDS011;59829;50.562;6.258;2023-06-10T02:11:16;5.05;;;2.90;;
71955;SDS011;59829;50.562;6.258;2023-06-10T02:21:16;6.38;;;2.80;;
71955;SDS011;59829;50.562;6.258;2023-06-10T02:31:17;4.60;;;2.60;;
71955;SDS011;59829;50.562;6.258;2023-06-10T02:41:18;5.38;;;2.67;;
71955;SDS011;59829;50.562;6.258;2023-06-10T02:51:18;4.38;;;2.70;;
71955;SDS011;59829;50.562;6.258;2023-06-10T03:01:18;5.03;;;2.55;;
71955;SDS011;59829;50.562;6.258;2023-06-10T03:11:19;5.32;;;2.70;;
71955;SDS011;59829;50.562;6.258;2023-06-10T03:21:19;4.57;;;2.60;;
71955;SDS011;59829;50.562;6.258;2023-06-10T03:31:20;5.93;;;2.65;;
71955;SDS011;59829;50.562;6.258;2023-06-10T03:41:20;4.45;;;2.70;;
71955;SDS011;59829;50.562;6.258;2023-06-10T03:51:21;4.95;;;2.95;;
71955;SDS011;59829;50.562;6.258;2023-06-10T04:01:21;4.38;;;2.75;;
71955;SDS011;59829;50.562;6.258;2023-06-10T04:21:24;5.10;;;3.10;;
71955;SDS011;59829;50.562;6.258;2023-06-10T04:31:25;5.53;;;3.03;;
71955;SDS011;59829;50.562;6.258;2023-06-10T04:41:25;5.55;;;2.90;;
71955;SDS011;59829;50.562;6.258;2023-06-10T04:51:27;4.93;;;3.03;;
71955;SDS011;59829;50.562;6.258;2023-06-10T05:01:27;4.75;;;2.88;;
71955;SDS011;59829;50.562;6.258;2023-06-10T05:11:28;4.53;;;2.63;;
71955;SDS011;59829;50.562;6.258;2023-06-10T05:21:28;4.35;;;2.70;;
71955;SDS011;59829;50.562;6.258;2023-06-10T05:31:28;5.57;;;2.60;;
71955;SDS011;59829;50.562;6.258;2023-06-10T05:41:29;3.58;;;2.30;;
71955;SDS011;59829;50.562;6.258;2023-06-10T05:51:29;3.55;;;2.22;;
71955;SDS011;59829;50.562;6.258;2023-06-10T06:01:29;3.88;;;2.30;;
71955;SDS011;59829;50.562;6.258;2023-06-10T06:11:30;3.40;;;2.17;;
71955;SDS011;59829;50.562;6.258;2023-06-10T06:21:30;3.70;;;2.30;;
71955;SDS011;59829;50.562;6.258;2023-06-10T06:31:31;3.90;;;2.40;;
71955;SDS011;59829;50.562;6.258;2023-06-10T06:41:31;3.33;;;2.05;;
71955;SDS011;59829;50.562;6.258;2023-06-10T06:51:31;3.92;;;2.35;;
71955;SDS011;59829;50.562;6.258;2023-06-10T07:01:33;4.47;;;2.72;;
71955;SDS011;59829;50.562;6.258;2023-06-10T07:11:34;7.05;;;2.40;;
71955;SDS011;59829;50.562;6.258;2023-06-10T07:21:34;4.05;;;2.55;;
71955;SDS011;59829;50.562;6.258;2023-06-10T07:31:36;5.10;;;2.77;;
71955;SDS011;59829;50.562;6.258;2023-06-10T07:41:36;4.28;;;2.45;;
71955;SDS011;59829;50.562;6.258;2023-06-10T07:51:36;4.57;;;2.55;;
71955;SDS011;59829;50.562;6.258;2023-06-10T08:01:37;3.92;;;2.60;;
71955;SDS011;59829;50.562;6.258;2023-06-10T08:11:39;3.75;;;2.40;;
71955;SDS011;59829;50.562;6.258;2023-06-10T08:21:39;4.05;;;2.60;;
71955;SDS011;59829;50.562;6.258;2023-06-10T08:31:43;4.97;;;2.92;;
71955;SDS011;59829;50.562;6.258;2023-06-10T08:41:44;4.53;;;2.60;;
71955;SDS011;59829;50.562;6.258;2023-06-10T08:52:00;4.55;;;3.10;;
71955;SDS011;59829;50.562;6.258;2023-06-10T09:02:02;3.72;;;2.53;;
71955;SDS011;59829;50.562;6.258;2023-06-10T09:12:04;3.88;;;2.70;;
71955;SDS011;59829;50.562;6.258;2023-06-10T09:22:05;4.57;;;3.10;;
71955;SDS011;59829;50.562;6.258;2023-06-10T09:32:06;4.00;;;2.67;;
71955;SDS011;59829;50.562;6.258;2023-06-10T09:52:21;5.35;;;3.05;;
71955;SDS011;59829;50.562;6.258;2023-06-10T10:02:25;4.93;;;2.80;;
71955;SDS011;59829;50.562;6.258;2023-06-10T10:12:25;4.78;;;3.05;;
71955;SDS011;59829;50.562;6.258;2023-06-10T10:22:27;4.30;;;2.80;;
71955;SDS011;59829;50.562;6.258;2023-06-10T10:32:32;4.03;;;2.45;;
71955;SDS011;59829;50.562;6.258;2023-06-10T10:42:38;5.55;;;3.35;;
71955;SDS011;59829;50.562;6.258;2023-06-10T11:02:53;4.57;;;2.85;;
71955;SDS011;59829;50.562;6.258;2023-06-10T11:12:58;6.80;;;2.85;;
71955;SDS011;59829;50.562;6.258;2023-06-10T11:23:00;4.45;;;2.85;;
71955;SDS011;59829;50.562;6.258;2023-06-10T11:33:02;4.10;;;2.75;;
71955;SDS011;59829;50.562;6.258;2023-06-10T11:43:03;5.60;;;3.20;;
71955;SDS011;59829;50.562;6.258;2023-06-10T11:53:04;5.28;;;2.63;;
71955;SDS011;59829;50.562;6.258;2023-06-10T12:03:05;4.18;;;2.83;;
71955;SDS011;59829;50.562;6.258;2023-06-10T12:13:05;4.90;;;2.70;;
71955;SDS011;59829;50.562;6.258;2023-06-10T12:23:09;4.20;;;2.70;;
71955;SDS011;59829;50.562;6.258;2023-06-10T12:33:17;3.00;;;2.50;;
71955;SDS011;59829;50.562;6.258;2023-06-10T12:43:24;4.78;;;2.80;;
71955;SDS011;59829;50.562;6.258;2023-06-10T12:53:25;3.92;;;2.63;;
71955;SDS011;59829;50.562;6.258;2023-06-10T13:03:29;5.50;;;3.08;;
71955;SDS011;59829;50.562;6.258;2023-06-10T13:13:29;4.35;;;2.65;;
71955;SDS011;59829;50.562;6.258;2023-06-10T13:23:29;4.63;;;2.63;;
71955;SDS011;59829;50.562;6.258;2023-06-10T13:33:31;4.20;;;2.83;;
71955;SDS011;59829;50.562;6.258;2023-06-10T13:43:32;4.55;;;2.80;;
71955;SDS011;59829;50.562;6.258;2023-06-10T13:53:33;3.70;;;2.50;;
71955;SDS011;59829;50.562;6.258;2023-06-10T14:13:34;3.80;;;2.50;;
71955;SDS011;59829;50.562;6.258;2023-06-10T14:23:34;4.40;;;2.70;;
71955;SDS011;59829;50.562;6.258;2023-06-10T14:33:35;2.95;;;2.15;;
71955;SDS011;59829;50.562;6.258;2023-06-10T14:43:35;4.57;;;2.10;;
71955;SDS011;59829;50.562;6.258;2023-06-10T14:53:35;4.15;;;2.30;;
71955;SDS011;59829;50.562;6.258;2023-06-10T15:03:36;3.58;;;2.20;;
71955;SDS011;59829;50.562;6.258;2023-06-10T15:13:36;3.80;;;2.25;;
71955;SDS011;59829;50.562;6.258;2023-06-10T15:23:36;3.90;;;2.28;;
71955;SDS011;59829;50.562;6.258;2023-06-10T15:33:37;3.80;;;2.22;;
71955;SDS011;59829;50.562;6.258;2023-06-10T15:53:38;3.28;;;2.05;;
71955;SDS011;59829;50.562;6.258;2023-06-10T16:03:38;3.30;;;2.50;;
71955;SDS011;59829;50.562;6.258;2023-06-10T16:13:38;2.97;;;2.10;;
71955;SDS011;59829;50.562;6.258;2023-06-10T16:23:41;3.90;;;2.60;;
71955;SDS011;59829;50.562;6.258;2023-06-10T16:33:41;3.28;;;2.30;;
71955;SDS011;59829;50.562;6.258;2023-06-10T16:43:41;3.50;;;2.10;;
71955;SDS011;59829;50.562;6.258;2023-06-10T16:53:42;3.50;;;2.47;;
71955;SDS011;59829;50.562;6.258;2023-06-10T17:03:42;3.95;;;2.40;;
71955;SDS011;59829;50.562;6.258;2023-06-10T17:13:42;3.33;;;2.38;;
71955;SDS011;59829;50.562;6.258;2023-06-10T17:23:43;3.80;;;2.30;;
71955;SDS011;59829;50.562;6.258;2023-06-10T17:33:43;3.78;;;2.15;;
71955;SDS011;59829;50.562;6.258;2023-06-10T17:43:43;2.58;;;1.98;;
71955;SDS011;59829;50.562;6.258;2023-06-10T17:53:44;3.80;;;1.92;;
71955;SDS011;59829;50.562;6.258;2023-06-10T18:03:46;3.20;;;2.15;;
71955;SDS011;59829;50.562;6.258;2023-06-10T18:13:47;5.32;;;2.50;;
71955;SDS011;59829;50.562;6.258;2023-06-10T18:23:49;3.70;;;2.20;;
71955;SDS011;59829;50.562;6.258;2023-06-10T18:33:50;3.40;;;2.30;;
71955;SDS011;59829;50.562;6.258;2023-06-10T18:43:50;3.53;;;2.22;;
71955;SDS011;59829;50.562;6.258;2023-06-10T18:53:50;3.28;;;2.10;;
71955;SDS011;59829;50.562;6.258;2023-06-10T19:03:51;3.15;;;2.10;;
71955;SDS011;59829;50.562;6.258;2023-06-10T19:13:51;3.97;;;2.40;;
71955;SDS011;59829;50.562;6.258;2023-06-10T19:23:52;4.28;;;2.35;;
71955;SDS011;59829;50.562;6.258;2023-06-10T19:33:52;3.35;;;2.30;;
71955;SDS011;59829;50.562;6.258;2023-06-10T19:43:53;6.05;;;2.65;;
71955;SDS011;59829;50.562;6.258;2023-06-10T19:53:54;2.97;;;2.20;;
71955;SDS011;59829;50.562;6.258;2023-06-10T20:03:55;3.70;;;2.67;;
71955;SDS011;59829;50.562;6.258;2023-06-10T20:13:55;3.20;;;2.20;;
71955;SDS011;59829;50.562;6.258;2023-06-10T20:23:55;3.05;;;2.22;;
71955;SDS011;59829;50.562;6.258;2023-06-10T20:33:56;4.25;;;2.30;;
71955;SDS011;59829;50.562;6.258;2023-06-10T20:43:56;3.63;;;2.20;;
71955;SDS011;59829;50.562;6.258;2023-06-10T20:53:57;3.93;;;2.43;;
71955;SDS011;59829;50.562;6.258;2023-06-10T21:03:58;3.33;;;2.40;;
71955;SDS011;59829;50.562;6.258;2023-06-10T21:13:59;3.60;;;2.33;;
71955;SDS011;59829;50.562;6.258;2023-06-10T21:24:00;3.70;;;2.50;;
71955;SDS011;59829;50.562;6.258;2023-06-10T21:34:01;4.55;;;2.47;;
71955;SDS011;59829;50.562;6.258;2023-06-10T21:44:02;4.57;;;2.97;;
71955;SDS011;59829;50.562;6.258;2023-06-10T21:54:02;3.95;;;2.53;;
71955;SDS011;59829;50.562;6.258;2023-06-10T22:04:03;3.53;;;2.28;;
71955;SDS011;59829;50.562;6.258;2023-06-10T22:14:03;3.25;;;2.10;;
71955;SDS011;59829;50.562;6.258;2023-06-10T22:24:04;3.17;;;2.20;;
71955;SDS011;59829;50.562;6.258;2023-06-10T22:34:05;3.78;;;2.45;;
71955;SDS011;59829;50.562;6.258;2023-06-10T22:44:05;3.40;;;2.25;;
71955;SDS011;59829;50.562;6.258;2023-06-10T22:54:06;3.58;;;2.20;;
71955;SDS011;59829;50.562;6.258;2023-06-10T23:04:07;4.40;;;2.28;;
71955;SDS011;59829;50.562;6.258;2023-06-10T23:14:07;3.85;;;2.30;;
71955;SDS011;59829;50.562;6.258;2023-06-10T23:24:11;3.80;;;2.47;;
71955;SDS011;59829;50.562;6.258;2023-06-10T23:34:16;4.82;;;2.97;;
71955;SDS011;59829;50.562;6.258;2023-06-10T23:44:17;5.37;;;3.00;;
71955;SDS011;59829;50.562;6.258;2023-06-10T23:54:17;4.28;;;2.58;;
